sensor_id;sensor_type;location;lat;lon;timestamp;temperature;humidity
12053;DHT22;6087;48.982;12.064;2022-10-01T00:00:59;11.50;99.90
12053;DHT22;6087;48.982;12.064;2022-10-01T00:03:27;11.50;99.90
12053;DHT22;6087;48.982;12.064;2022-10-01T00:05:59;11.50;99.90
12053;DHT22;6087;48.982;12.064;2022-10-01T00:08:28;11.40;99.90
12053;DHT22;6087;48.982;12.064;2022-10-01T00:10:56;11.50;99.90
12053;DHT22;6087;48.982;12.064;2022-10-01T00:13:25;11.60;99.90
12053;DHT22;6087;48.982;12.064;2022-10-01T00:15:52;11.60;99.90
12053;DHT22;6087;48.982;12.064;2022-10-01T00:18:19;11.60;99.90
12053;DHT22;6087;48.982;12.064;2022-10-01T00:20:46;11.60;99.90
12053;DHT22;6087;48.982;12.064;2022-10-01T00:23:13;11.60;99.90
12053;DHT22;6087;48.982;12.064;2022-10-01T00:25:42;11.70;99.90
12053;DHT22;6087;48.982;12.064;2022-10-01T00:28:09;11.70;99.90
12053;DHT22;6087;48.982;12.064;2022-10-01T00:30:36;11.70;99.90
12053;DHT22;6087;48.982;12.064;2022-10-01T00:33:03;11.70;99.90
12053;DHT22;6087;48.982;12.064;2022-10-01T00:35:30;11.80;99.90
12053;DHT22;6087;48.982;12.064;2022-10-01T00:37:57;11.70;99.90
12053;DHT22;6087;48.982;12.064;2022-10-01T00:40:24;11.70;99.90
12053;DHT22;6087;48.982;12.064;2022-10-01T00:42:52;11.70;99.90
12053;DHT22;6087;48.982;12.064;2022-10-01T00:45:19;11.70;99.90
12053;DHT22;6087;48.982;12.064;2022-10-01T00:47:48;11.60;99.90
12053;DHT22;6087;48.982;12.064;2022-10-01T00:50:21;11.50;99.90
12053;DHT22;6087;48.982;12.064;2022-10-01T00:52:53;11.40;99.90
12053;DHT22;6087;48.982;12.064;2022-10-01T00:55:24;11.30;99.90
12053;DHT22;6087;48.982;12.064;2022-10-01T00:57:54;11.30;99.90
12053;DHT22;6087;48.982;12.064;2022-10-01T01:00:22;11.20;99.90
12053;DHT22;6087;48.982;12.064;2022-10-01T01:02:49;11.10;99.90
12053;DHT22;6087;48.982;12.064;2022-10-01T01:05:17;11.10;99.90
12053;DHT22;6087;48.982;12.064;2022-10-01T01:07:46;11.10;99.90
12053;DHT22;6087;48.982;12.064;2022-10-01T01:10:16;11.10;99.90
12053;DHT22;6087;48.982;12.064;2022-10-01T01:13:01;11.10;99.90
12053;DHT22;6087;48.982;12.064;2022-10-01T01:15:35;11.00;99.90
12053;DHT22;6087;48.982;12.064;2022-10-01T01:18:06;10.90;99.90
12053;DHT22;6087;48.982;12.064;2022-10-01T01:21:07;11.00;99.90
12053;DHT22;6087;48.982;12.064;2022-10-01T01:26:40;11.00;99.90
12053;DHT22;6087;48.982;12.064;2022-10-01T01:29:16;11.00;99.90
12053;DHT22;6087;48.982;12.064;2022-10-01T01:31:46;11.10;99.90
12053;DHT22;6087;48.982;12.064;2022-10-01T01:34:18;11.00;99.90
12053;DHT22;6087;48.982;12.064;2022-10-01T01:36:49;11.00;99.90
12053;DHT22;6087;48.982;12.064;2022-10-01T01:39:20;11.00;99.90
12053;DHT22;6087;48.982;12.064;2022-10-01T01:41:50;11.00;99.90
12053;DHT22;6087;48.982;12.064;2022-10-01T01:44:23;10.80;99.90
12053;DHT22;6087;48.982;12.064;2022-10-01T01:46:53;10.80;99.90
12053;DHT22;6087;48.982;12.064;2022-10-01T01:49:22;10.80;99.90
12053;DHT22;6087;48.982;12.064;2022-10-01T01:51:54;10.70;99.90
12053;DHT22;6087;48.982;12.064;2022-10-01T01:54:22;10.70;99.90
12053;DHT22;6087;48.982;12.064;2022-10-01T01:56:50;10.70;99.90
12053;DHT22;6087;48.982;12.064;2022-10-01T01:59:19;10.60;99.90
12053;DHT22;6087;48.982;12.064;2022-10-01T02:01:46;10.60;99.90
12053;DHT22;6087;48.982;12.064;2022-10-01T02:04:21;10.60;99.90
12053;DHT22;6087;48.982;12.064;2022-10-01T02:09:50;10.30;99.90
12053;DHT22;6087;48.982;12.064;2022-10-01T02:12:29;10.40;99.90
12053;DHT22;6087;48.982;12.064;2022-10-01T02:15:06;10.30;99.90
12053;DHT22;6087;48.982;12.064;2022-10-01T02:17:41;10.30;99.90
12053;DHT22;6087;48.982;12.064;2022-10-01T02:20:19;10.20;99.90
12053;DHT22;6087;48.982;12.064;2022-10-01T02:22:52;10.20;99.90
12053;DHT22;6087;48.982;12.064;2022-10-01T02:25:24;10.10;99.90
12053;DHT22;6087;48.982;12.064;2022-10-01T02:27:55;10.10;99.90
12053;DHT22;6087;48.982;12.064;2022-10-01T02:30:27;10.00;99.90
12053;DHT22;6087;48.982;12.064;2022-10-01T02:32:56;9.90;99.90
12053;DHT22;6087;48.982;12.064;2022-10-01T02:35:26;9.90;99.90
12053;DHT22;6087;48.982;12.064;2022-10-01T02:37:57;9.80;99.90
12053;DHT22;6087;48.982;12.064;2022-10-01T02:40:27;9.80;99.90
12053;DHT22;6087;48.982;12.064;2022-10-01T02:42:58;9.80;99.90
12053;DHT22;6087;48.982;12.064;2022-10-01T02:45:31;9.80;99.90
12053;DHT22;6087;48.982;12.064;2022-10-01T02:48:02;9.80;99.90
12053;DHT22;6087;48.982;12.064;2022-10-01T02:50:33;9.70;99.90
12053;DHT22;6087;48.982;12.064;2022-10-01T02:53:04;9.70;99.90
12053;DHT22;6087;48.982;12.064;2022-10-01T02:55:35;9.60;99.90
12053;DHT22;6087;48.982;12.064;2022-10-01T02:58:03;9.60;99.90
12053;DHT22;6087;48.982;12.064;2022-10-01T03:00:31;9.60;99.90
12053;DHT22;6087;48.982;12.064;2022-10-01T03:02:58;9.50;99.90
12053;DHT22;6087;48.982;12.064;2022-10-01T03:05:25;9.50;99.90
12053;DHT22;6087;48.982;12.064;2022-10-01T03:07:52;9.40;99.90
12053;DHT22;6087;48.982;12.064;2022-10-01T03:10:19;9.40;99.90
12053;DHT22;6087;48.982;12.064;2022-10-01T03:12:46;9.40;99.90
12053;DHT22;6087;48.982;12.064;2022-10-01T03:15:17;9.30;99.90
12053;DHT22;6087;48.982;12.064;2022-10-01T03:17:50;9.20;99.90
12053;DHT22;6087;48.982;12.064;2022-10-01T03:20:17;9.20;99.90
12053;DHT22;6087;48.982;12.064;2022-10-01T03:22:44;9.10;99.90
12053;DHT22;6087;48.982;12.064;2022-10-01T03:25:11;9.10;99.90
12053;DHT22;6087;48.982;12.064;2022-10-01T03:27:38;9.10;99.90
12053;DHT22;6087;48.982;12.064;2022-10-01T03:30:06;9.10;99.90
12053;DHT22;6087;48.982;12.064;2022-10-01T03:32:33;9.10;99.90
12053;DHT22;6087;48.982;12.064;2022-10-01T03:35:02;9.10;99.90
12053;DHT22;6087;48.982;12.064;2022-10-01T03:37:29;9.00;99.90
12053;DHT22;6087;48.982;12.064;2022-10-01T03:39:56;9.00;99.90
12053;DHT22;6087;48.982;12.064;2022-10-01T03:42:23;9.00;99.90
12053;DHT22;6087;48.982;12.064;2022-10-01T03:44:50;9.00;99.90
12053;DHT22;6087;48.982;12.064;2022-10-01T03:47:17;9.00;99.90
12053;DHT22;6087;48.982;12.064;2022-10-01T03:49:44;9.00;99.90
12053;DHT22;6087;48.982;12.064;2022-10-01T03:52:12;9.10;99.90
12053;DHT22;6087;48.982;12.064;2022-10-01T03:54:39;9.10;99.90
12053;DHT22;6087;48.982;12.064;2022-10-01T03:57:06;9.00;99.90
12053;DHT22;6087;48.982;12.064;2022-10-01T03:59:33;8.90;99.90
12053;DHT22;6087;48.982;12.064;2022-10-01T04:02:00;8.80;99.90
12053;DHT22;6087;48.982;12.064;2022-10-01T04:04:27;8.80;99.90
12053;DHT22;6087;48.982;12.064;2022-10-01T04:06:54;8.80;99.90
12053;DHT22;6087;48.982;12.064;2022-10-01T04:09:23;8.80;99.90
12053;DHT22;6087;48.982;12.064;2022-10-01T04:11:50;8.80;99.90
12053;DHT22;6087;48.982;12.064;2022-10-01T04:14:17;8.80;99.90
12053;DHT22;6087;48.982;12.064;2022-10-01T04:16:44;8.80;99.90
12053;DHT22;6087;48.982;12.064;2022-10-01T04:19:11;8.90;99.90
12053;DHT22;6087;48.982;12.064;2022-10-01T04:21:38;9.00;99.90
12053;DHT22;6087;48.982;12.064;2022-10-01T04:24:05;8.90;99.90
12053;DHT22;6087;48.982;12.064;2022-10-01T04:26:33;9.00;99.90
12053;DHT22;6087;48.982;12.064;2022-10-01T04:29:00;8.80;99.90
12053;DHT22;6087;48.982;12.064;2022-10-01T04:31:27;8.90;99.90
12053;DHT22;6087;48.982;12.064;2022-10-01T04:33:59;8.90;99.90
12053;DHT22;6087;48.982;12.064;2022-10-01T04:36:26;8.90;99.90
12053;DHT22;6087;48.982;12.064;2022-10-01T04:38:54;9.00;99.90
12053;DHT22;6087;48.982;12.064;2022-10-01T04:41:21;9.10;99.90
12053;DHT22;6087;48.982;12.064;2022-10-01T04:43:49;8.90;99.90
12053;DHT22;6087;48.982;12.064;2022-10-01T04:46:16;8.80;99.90
12053;DHT22;6087;48.982;12.064;2022-10-01T04:48:43;8.80;99.90
12053;DHT22;6087;48.982;12.064;2022-10-01T04:51:10;8.80;99.90
12053;DHT22;6087;48.982;12.064;2022-10-01T04:53:37;8.70;99.90
12053;DHT22;6087;48.982;12.064;2022-10-01T04:56:04;8.70;99.90
12053;DHT22;6087;48.982;12.064;2022-10-01T04:58:32;8.80;99.90
12053;DHT22;6087;48.982;12.064;2022-10-01T05:01:00;8.90;99.90
12053;DHT22;6087;48.982;12.064;2022-10-01T05:03:27;8.90;99.90
12053;DHT22;6087;48.982;12.064;2022-10-01T05:05:54;8.90;99.90
12053;DHT22;6087;48.982;12.064;2022-10-01T05:08:21;8.90;99.90
12053;DHT22;6087;48.982;12.064;2022-10-01T05:10:48;8.90;99.90
12053;DHT22;6087;48.982;12.064;2022-10-01T05:13:15;9.00;99.90
12053;DHT22;6087;48.982;12.064;2022-10-01T05:15:42;9.00;99.90
12053;DHT22;6087;48.982;12.064;2022-10-01T05:18:10;8.90;99.90
12053;DHT22;6087;48.982;12.064;2022-10-01T05:20:37;8.90;99.90
12053;DHT22;6087;48.982;12.064;2022-10-01T05:23:04;8.90;99.90
12053;DHT22;6087;48.982;12.064;2022-10-01T05:25:31;9.00;99.90
12053;DHT22;6087;48.982;12.064;2022-10-01T05:28:02;9.00;99.90
12053;DHT22;6087;48.982;12.064;2022-10-01T05:30:32;9.00;99.90
12053;DHT22;6087;48.982;12.064;2022-10-01T05:33:01;9.00;99.90
12053;DHT22;6087;48.982;12.064;2022-10-01T05:35:30;9.00;99.90
12053;DHT22;6087;48.982;12.064;2022-10-01T05:37:58;9.00;99.90
12053;DHT22;6087;48.982;12.064;2022-10-01T05:40:27;9.00;99.90
12053;DHT22;6087;48.982;12.064;2022-10-01T05:42:54;9.00;99.90
12053;DHT22;6087;48.982;12.064;2022-10-01T05:45:22;9.00;99.90
12053;DHT22;6087;48.982;12.064;2022-10-01T05:47:55;9.00;99.90
12053;DHT22;6087;48.982;12.064;2022-10-01T05:50:23;9.00;99.90
12053;DHT22;6087;48.982;12.064;2022-10-01T05:52:52;9.00;99.90
12053;DHT22;6087;48.982;12.064;2022-10-01T05:55:20;9.00;99.90
12053;DHT22;6087;48.982;12.064;2022-10-01T05:57:58;9.10;99.90
12053;DHT22;6087;48.982;12.064;2022-10-01T06:00:26;9.10;99.90
12053;DHT22;6087;48.982;12.064;2022-10-01T06:02:53;9.10;99.90
12053;DHT22;6087;48.982;12.064;2022-10-01T06:05:21;9.10;99.90
12053;DHT22;6087;48.982;12.064;2022-10-01T06:07:48;9.10;99.90
12053;DHT22;6087;48.982;12.064;2022-10-01T06:10:17;9.10;99.90
12053;DHT22;6087;48.982;12.064;2022-10-01T06:12:44;9.10;99.90
12053;DHT22;6087;48.982;12.064;2022-10-01T06:15:12;9.10;99.90
12053;DHT22;6087;48.982;12.064;2022-10-01T06:17:39;9.10;99.90
12053;DHT22;6087;48.982;12.064;2022-10-01T06:20:10;9.10;99.90
12053;DHT22;6087;48.982;12.064;2022-10-01T06:22:39;9.10;99.90
12053;DHT22;6087;48.982;12.064;2022-10-01T06:25:08;9.10;99.90
12053;DHT22;6087;48.982;12.064;2022-10-01T06:27:36;9.10;99.90
12053;DHT22;6087;48.982;12.064;2022-10-01T06:30:04;9.10;99.90
12053;DHT22;6087;48.982;12.064;2022-10-01T06:32:31;9.10;99.90
12053;DHT22;6087;48.982;12.064;2022-10-01T06:34:58;9.10;99.90
12053;DHT22;6087;48.982;12.064;2022-10-01T06:37:25;9.00;99.90
12053;DHT22;6087;48.982;12.064;2022-10-01T06:39:52;9.00;99.90
12053;DHT22;6087;48.982;12.064;2022-10-01T06:42:19;9.00;99.90
12053;DHT22;6087;48.982;12.064;2022-10-01T06:44:48;8.90;99.90
12053;DHT22;6087;48.982;12.064;2022-10-01T06:47:15;8.90;99.90
12053;DHT22;6087;48.982;12.064;2022-10-01T06:49:42;8.90;99.90
12053;DHT22;6087;48.982;12.064;2022-10-01T06:52:09;8.90;99.90
12053;DHT22;6087;48.982;12.064;2022-10-01T06:54:53;8.90;99.90
12053;DHT22;6087;48.982;12.064;2022-10-01T06:57:20;9.00;99.90
12053;DHT22;6087;48.982;12.064;2022-10-01T06:59:49;9.00;99.90
12053;DHT22;6087;48.982;12.064;2022-10-01T07:02:21;9.00;99.90
12053;DHT22;6087;48.982;12.064;2022-10-01T07:04:50;9.00;99.90
12053;DHT22;6087;48.982;12.064;2022-10-01T07:07:17;9.00;99.90
12053;DHT22;6087;48.982;12.064;2022-10-01T07:09:43;9.00;99.90
12053;DHT22;6087;48.982;12.064;2022-10-01T07:12:10;9.00;99.90
12053;DHT22;6087;48.982;12.064;2022-10-01T07:14:37;9.00;99.90
12053;DHT22;6087;48.982;12.064;2022-10-01T07:17:06;9.00;99.90
12053;DHT22;6087;48.982;12.064;2022-10-01T07:19:33;9.10;99.90
12053;DHT22;6087;48.982;12.064;2022-10-01T07:21:59;9.10;99.90
12053;DHT22;6087;48.982;12.064;2022-10-01T07:24:26;9.20;99.90
12053;DHT22;6087;48.982;12.064;2022-10-01T07:26:53;9.30;99.90
12053;DHT22;6087;48.982;12.064;2022-10-01T07:29:21;9.30;99.90
12053;DHT22;6087;48.982;12.064;2022-10-01T07:31:49;9.30;99.90
12053;DHT22;6087;48.982;12.064;2022-10-01T07:34:17;9.40;99.90
12053;DHT22;6087;48.982;12.064;2022-10-01T07:36:44;9.30;99.90
12053;DHT22;6087;48.982;12.064;2022-10-01T07:39:11;9.30;99.90
12053;DHT22;6087;48.982;12.064;2022-10-01T07:41:38;9.40;99.90
12053;DHT22;6087;48.982;12.064;2022-10-01T07:44:07;9.40;99.90
12053;DHT22;6087;48.982;12.064;2022-10-01T07:46:36;9.50;99.90
12053;DHT22;6087;48.982;12.064;2022-10-01T07:49:03;9.50;99.90
12053;DHT22;6087;48.982;12.064;2022-10-01T07:51:32;9.50;99.90
12053;DHT22;6087;48.982;12.064;2022-10-01T07:53:58;9.60;99.90
12053;DHT22;6087;48.982;12.064;2022-10-01T07:56:25;9.60;99.90
12053;DHT22;6087;48.982;12.064;2022-10-01T07:58:53;9.70;99.90
12053;DHT22;6087;48.982;12.064;2022-10-01T08:01:21;9.70;99.90
12053;DHT22;6087;48.982;12.064;2022-10-01T08:03:48;9.70;99.90
12053;DHT22;6087;48.982;12.064;2022-10-01T08:06:16;9.80;99.90
12053;DHT22;6087;48.982;12.064;2022-10-01T08:08:45;9.80;99.90
12053;DHT22;6087;48.982;12.064;2022-10-01T08:11:12;9.90;99.90
12053;DHT22;6087;48.982;12.064;2022-10-01T08:13:42;9.90;99.90
12053;DHT22;6087;48.982;12.064;2022-10-01T08:16:10;10.00;99.90
12053;DHT22;6087;48.982;12.064;2022-10-01T08:18:38;10.00;99.90
12053;DHT22;6087;48.982;12.064;2022-10-01T08:21:06;10.10;99.90
12053;DHT22;6087;48.982;12.064;2022-10-01T08:23:34;10.10;99.90
12053;DHT22;6087;48.982;12.064;2022-10-01T08:26:04;10.20;99.90
12053;DHT22;6087;48.982;12.064;2022-10-01T08:28:32;10.20;99.90
12053;DHT22;6087;48.982;12.064;2022-10-01T08:31:03;10.30;99.90
12053;DHT22;6087;48.982;12.064;2022-10-01T08:33:34;10.30;99.90
12053;DHT22;6087;48.982;12.064;2022-10-01T08:36:01;10.30;99.90
12053;DHT22;6087;48.982;12.064;2022-10-01T08:38:28;10.40;99.90
12053;DHT22;6087;48.982;12.064;2022-10-01T08:40:56;10.40;99.90
12053;DHT22;6087;48.982;12.064;2022-10-01T08:43:32;10.40;99.90
12053;DHT22;6087;48.982;12.064;2022-10-01T08:46:02;10.40;99.90
12053;DHT22;6087;48.982;12.064;2022-10-01T08:48:43;10.40;99.90
12053;DHT22;6087;48.982;12.064;2022-10-01T08:51:17;10.50;99.90
12053;DHT22;6087;48.982;12.064;2022-10-01T08:53:49;10.60;99.90
12053;DHT22;6087;48.982;12.064;2022-10-01T08:56:23;10.50;99.90
12053;DHT22;6087;48.982;12.064;2022-10-01T08:58:56;10.50;99.90
12053;DHT22;6087;48.982;12.064;2022-10-01T09:01:24;10.50;99.90
12053;DHT22;6087;48.982;12.064;2022-10-01T09:03:51;10.50;99.90
12053;DHT22;6087;48.982;12.064;2022-10-01T09:06:21;10.60;99.90
12053;DHT22;6087;48.982;12.064;2022-10-01T09:09:01;10.60;99.90
12053;DHT22;6087;48.982;12.064;2022-10-01T09:11:41;10.60;99.90
12053;DHT22;6087;48.982;12.064;2022-10-01T09:14:35;10.60;99.90
12053;DHT22;6087;48.982;12.064;2022-10-01T09:17:15;10.60;99.90
12053;DHT22;6087;48.982;12.064;2022-10-01T09:20:09;10.60;99.90
12053;DHT22;6087;48.982;12.064;2022-10-01T09:22:38;10.60;99.90
12053;DHT22;6087;48.982;12.064;2022-10-01T09:25:12;10.70;99.90
12053;DHT22;6087;48.982;12.064;2022-10-01T09:27:40;10.70;99.90
12053;DHT22;6087;48.982;12.064;2022-10-01T09:30:13;10.70;99.90
12053;DHT22;6087;48.982;12.064;2022-10-01T09:32:44;10.70;99.90
12053;DHT22;6087;48.982;12.064;2022-10-01T09:35:22;10.70;99.90
12053;DHT22;6087;48.982;12.064;2022-10-01T09:37:55;10.80;99.90
12053;DHT22;6087;48.982;12.064;2022-10-01T09:40:31;10.80;99.90
12053;DHT22;6087;48.982;12.064;2022-10-01T09:43:00;10.80;99.90
12053;DHT22;6087;48.982;12.064;2022-10-01T09:45:28;10.90;99.90
12053;DHT22;6087;48.982;12.064;2022-10-01T09:48:00;10.90;99.90
12053;DHT22;6087;48.982;12.064;2022-10-01T09:50:33;11.00;99.90
12053;DHT22;6087;48.982;12.064;2022-10-01T09:53:05;11.00;99.90
12053;DHT22;6087;48.982;12.064;2022-10-01T09:55:39;11.00;99.90
12053;DHT22;6087;48.982;12.064;2022-10-01T09:58:09;11.10;99.90
12053;DHT22;6087;48.982;12.064;2022-10-01T10:00:39;11.10;99.90
12053;DHT22;6087;48.982;12.064;2022-10-01T10:03:07;11.10;99.90
12053;DHT22;6087;48.982;12.064;2022-10-01T10:05:42;11.10;99.90
12053;DHT22;6087;48.982;12.064;2022-10-01T10:08:20;11.00;99.90
12053;DHT22;6087;48.982;12.064;2022-10-01T10:10:50;11.10;99.90
12053;DHT22;6087;48.982;12.064;2022-10-01T10:13:20;11.10;99.90
12053;DHT22;6087;48.982;12.064;2022-10-01T10:15:54;11.10;99.90
12053;DHT22;6087;48.982;12.064;2022-10-01T10:18:27;11.10;99.90
12053;DHT22;6087;48.982;12.064;2022-10-01T10:20:55;11.10;99.90
12053;DHT22;6087;48.982;12.064;2022-10-01T10:23:25;10.90;99.90
12053;DHT22;6087;48.982;12.064;2022-10-01T10:25:54;10.80;99.90
12053;DHT22;6087;48.982;12.064;2022-10-01T10:28:23;10.80;99.90
12053;DHT22;6087;48.982;12.064;2022-10-01T10:30:53;10.70;99.90
12053;DHT22;6087;48.982;12.064;2022-10-01T10:33:22;10.70;99.90
12053;DHT22;6087;48.982;12.064;2022-10-01T10:35:58;10.70;99.90
12053;DHT22;6087;48.982;12.064;2022-10-01T10:38:29;10.60;99.90
12053;DHT22;6087;48.982;12.064;2022-10-01T10:40:57;10.50;99.90
12053;DHT22;6087;48.982;12.064;2022-10-01T10:43:26;10.40;99.90
12053;DHT22;6087;48.982;12.064;2022-10-01T10:45:56;10.30;99.90
12053;DHT22;6087;48.982;12.064;2022-10-01T10:48:28;10.30;99.90
12053;DHT22;6087;48.982;12.064;2022-10-01T10:50:58;10.20;99.90
12053;DHT22;6087;48.982;12.064;2022-10-01T10:53:28;10.20;99.90
12053;DHT22;6087;48.982;12.064;2022-10-01T10:55:59;10.20;99.90
12053;DHT22;6087;48.982;12.064;2022-10-01T10:58:28;10.10;99.90
12053;DHT22;6087;48.982;12.064;2022-10-01T11:00:59;10.10;99.90
12053;DHT22;6087;48.982;12.064;2022-10-01T11:03:28;10.10;99.90
12053;DHT22;6087;48.982;12.064;2022-10-01T11:06:02;10.10;99.90
12053;DHT22;6087;48.982;12.064;2022-10-01T11:08:35;10.10;99.90
12053;DHT22;6087;48.982;12.064;2022-10-01T11:11:11;10.10;99.90
12053;DHT22;6087;48.982;12.064;2022-10-01T11:13:52;10.00;99.90
12053;DHT22;6087;48.982;12.064;2022-10-01T11:16:45;10.00;99.90
12053;DHT22;6087;48.982;12.064;2022-10-01T11:19:37;10.00;99.90
12053;DHT22;6087;48.982;12.064;2022-10-01T11:22:21;10.00;99.90
12053;DHT22;6087;48.982;12.064;2022-10-01T11:25:00;9.90;99.90
12053;DHT22;6087;48.982;12.064;2022-10-01T11:27:36;9.90;99.90
12053;DHT22;6087;48.982;12.064;2022-10-01T11:30:09;9.90;99.90
12053;DHT22;6087;48.982;12.064;2022-10-01T11:32:44;9.80;99.90
12053;DHT22;6087;48.982;12.064;2022-10-01T11:35:31;9.80;99.90
12053;DHT22;6087;48.982;12.064;2022-10-01T11:38:29;9.80;99.90
12053;DHT22;6087;48.982;12.064;2022-10-01T11:41:10;9.80;99.90
12053;DHT22;6087;48.982;12.064;2022-10-01T11:43:42;9.80;99.90
12053;DHT22;6087;48.982;12.064;2022-10-01T11:46:14;9.80;99.90
12053;DHT22;6087;48.982;12.064;2022-10-01T11:48:45;9.70;99.90
12053;DHT22;6087;48.982;12.064;2022-10-01T11:51:16;9.70;99.90
12053;DHT22;6087;48.982;12.064;2022-10-01T11:53:47;9.70;99.90
12053;DHT22;6087;48.982;12.064;2022-10-01T11:56:19;9.70;99.90
12053;DHT22;6087;48.982;12.064;2022-10-01T11:59:07;9.60;99.90
12053;DHT22;6087;48.982;12.064;2022-10-01T12:01:41;9.70;99.90
12053;DHT22;6087;48.982;12.064;2022-10-01T12:04:21;9.70;99.90
12053;DHT22;6087;48.982;12.064;2022-10-01T12:06:54;9.60;99.90
12053;DHT22;6087;48.982;12.064;2022-10-01T12:09:30;9.60;99.90
12053;DHT22;6087;48.982;12.064;2022-10-01T12:12:01;9.60;99.90
12053;DHT22;6087;48.982;12.064;2022-10-01T12:14:36;9.60;99.90
12053;DHT22;6087;48.982;12.064;2022-10-01T12:17:11;9.60;99.90
12053;DHT22;6087;48.982;12.064;2022-10-01T12:19:44;9.60;99.90
12053;DHT22;6087;48.982;12.064;2022-10-01T12:22:15;9.60;99.90
12053;DHT22;6087;48.982;12.064;2022-10-01T12:24:46;9.60;99.90
12053;DHT22;6087;48.982;12.064;2022-10-01T12:27:38;9.60;99.90
12053;DHT22;6087;48.982;12.064;2022-10-01T12:30:10;9.60;99.90
12053;DHT22;6087;48.982;12.064;2022-10-01T12:33:00;9.60;99.90
12053;DHT22;6087;48.982;12.064;2022-10-01T12:35:44;9.70;99.90
12053;DHT22;6087;48.982;12.064;2022-10-01T12:41:17;9.60;99.90
12053;DHT22;6087;48.982;12.064;2022-10-01T12:43:56;9.70;99.90
12053;DHT22;6087;48.982;12.064;2022-10-01T12:46:33;9.70;99.90
12053;DHT22;6087;48.982;12.064;2022-10-01T12:49:13;9.70;99.90
12053;DHT22;6087;48.982;12.064;2022-10-01T12:51:53;9.70;99.90
12053;DHT22;6087;48.982;12.064;2022-10-01T12:54:41;9.70;99.90
12053;DHT22;6087;48.982;12.064;2022-10-01T12:57:25;9.80;99.90
12053;DHT22;6087;48.982;12.064;2022-10-01T13:00:04;9.80;99.90
12053;DHT22;6087;48.982;12.064;2022-10-01T13:05:48;9.80;99.90
12053;DHT22;6087;48.982;12.064;2022-10-01T13:08:43;9.80;99.90
12053;DHT22;6087;48.982;12.064;2022-10-01T13:11:21;10.00;99.90
12053;DHT22;6087;48.982;12.064;2022-10-01T13:13:51;9.90;99.90
12053;DHT22;6087;48.982;12.064;2022-10-01T13:16:23;10.00;99.90
12053;DHT22;6087;48.982;12.064;2022-10-01T13:19:01;10.00;99.90
12053;DHT22;6087;48.982;12.064;2022-10-01T13:21:41;10.10;99.90
12053;DHT22;6087;48.982;12.064;2022-10-01T13:24:16;10.10;99.90
12053;DHT22;6087;48.982;12.064;2022-10-01T13:26:50;10.10;99.90
12053;DHT22;6087;48.982;12.064;2022-10-01T13:29:30;10.20;99.90
12053;DHT22;6087;48.982;12.064;2022-10-01T13:32:02;10.20;99.90
12053;DHT22;6087;48.982;12.064;2022-10-01T13:34:38;10.30;99.90
12053;DHT22;6087;48.982;12.064;2022-10-01T13:37:12;10.30;99.90
12053;DHT22;6087;48.982;12.064;2022-10-01T13:39:41;10.30;99.90
12053;DHT22;6087;48.982;12.064;2022-10-01T13:42:24;10.30;99.90
12053;DHT22;6087;48.982;12.064;2022-10-01T13:44:54;10.30;99.90
12053;DHT22;6087;48.982;12.064;2022-10-01T13:47:23;10.40;99.90
12053;DHT22;6087;48.982;12.064;2022-10-01T13:49:58;10.40;99.90
12053;DHT22;6087;48.982;12.064;2022-10-01T13:52:28;10.40;99.90
12053;DHT22;6087;48.982;12.064;2022-10-01T13:54:58;10.40;99.90
12053;DHT22;6087;48.982;12.064;2022-10-01T13:57:29;10.40;99.90
12053;DHT22;6087;48.982;12.064;2022-10-01T13:59:58;10.50;99.90
12053;DHT22;6087;48.982;12.064;2022-10-01T14:02:31;10.40;99.90
12053;DHT22;6087;48.982;12.064;2022-10-01T14:05:22;10.40;99.90
12053;DHT22;6087;48.982;12.064;2022-10-01T14:07:55;10.50;99.90
12053;DHT22;6087;48.982;12.064;2022-10-01T14:10:32;10.50;99.90
12053;DHT22;6087;48.982;12.064;2022-10-01T14:13:02;10.50;99.90
12053;DHT22;6087;48.982;12.064;2022-10-01T14:15:47;10.60;99.90
12053;DHT22;6087;48.982;12.064;2022-10-01T14:18:29;10.60;99.90
12053;DHT22;6087;48.982;12.064;2022-10-01T14:21:09;10.50;99.90
12053;DHT22;6087;48.982;12.064;2022-10-01T14:23:46;10.50;99.90
12053;DHT22;6087;48.982;12.064;2022-10-01T14:26:21;10.50;99.90
12053;DHT22;6087;48.982;12.064;2022-10-01T14:28:59;10.50;99.90
12053;DHT22;6087;48.982;12.064;2022-10-01T14:31:36;10.40;99.90
12053;DHT22;6087;48.982;12.064;2022-10-01T14:37:01;10.40;99.90
12053;DHT22;6087;48.982;12.064;2022-10-01T14:39:31;10.40;99.90
12053;DHT22;6087;48.982;12.064;2022-10-01T14:42:07;10.30;99.90
12053;DHT22;6087;48.982;12.064;2022-10-01T14:44:37;10.30;99.90
12053;DHT22;6087;48.982;12.064;2022-10-01T14:47:12;10.40;99.90
12053;DHT22;6087;48.982;12.064;2022-10-01T14:49:39;10.40;99.90
12053;DHT22;6087;48.982;12.064;2022-10-01T14:52:15;10.40;99.90
12053;DHT22;6087;48.982;12.064;2022-10-01T14:54:46;10.40;99.90
12053;DHT22;6087;48.982;12.064;2022-10-01T14:57:19;10.40;99.90
12053;DHT22;6087;48.982;12.064;2022-10-01T14:59:49;10.40;99.90
12053;DHT22;6087;48.982;12.064;2022-10-01T15:02:18;10.40;99.90
12053;DHT22;6087;48.982;12.064;2022-10-01T15:04:46;10.40;99.90
12053;DHT22;6087;48.982;12.064;2022-10-01T15:07:14;10.50;99.90
12053;DHT22;6087;48.982;12.064;2022-10-01T15:09:42;10.40;99.90
12053;DHT22;6087;48.982;12.064;2022-10-01T15:12:10;10.50;99.90
12053;DHT22;6087;48.982;12.064;2022-10-01T15:14:40;10.50;99.90
12053;DHT22;6087;48.982;12.064;2022-10-01T15:17:17;10.50;99.90
12053;DHT22;6087;48.982;12.064;2022-10-01T15:19:45;10.60;99.90
12053;DHT22;6087;48.982;12.064;2022-10-01T15:22:14;10.60;99.90
12053;DHT22;6087;48.982;12.064;2022-10-01T15:24:42;10.60;99.90
12053;DHT22;6087;48.982;12.064;2022-10-01T15:27:12;10.60;99.90
12053;DHT22;6087;48.982;12.064;2022-10-01T15:29:41;10.60;99.90
12053;DHT22;6087;48.982;12.064;2022-10-01T15:32:09;10.60;99.90
12053;DHT22;6087;48.982;12.064;2022-10-01T15:34:39;10.60;99.90
12053;DHT22;6087;48.982;12.064;2022-10-01T15:37:12;10.60;99.90
12053;DHT22;6087;48.982;12.064;2022-10-01T15:39:47;10.60;99.90
12053;DHT22;6087;48.982;12.064;2022-10-01T15:42:21;10.70;99.90
12053;DHT22;6087;48.982;12.064;2022-10-01T15:45:11;10.70;99.90
12053;DHT22;6087;48.982;12.064;2022-10-01T15:47:38;10.70;99.90
12053;DHT22;6087;48.982;12.064;2022-10-01T15:50:17;10.70;99.90
12053;DHT22;6087;48.982;12.064;2022-10-01T15:52:57;10.70;99.90
12053;DHT22;6087;48.982;12.064;2022-10-01T15:55:33;10.70;99.90
12053;DHT22;6087;48.982;12.064;2022-10-01T15:58:14;10.80;99.90
12053;DHT22;6087;48.982;12.064;2022-10-01T16:00:55;10.80;99.90
12053;DHT22;6087;48.982;12.064;2022-10-01T16:03:26;10.80;99.90
12053;DHT22;6087;48.982;12.064;2022-10-01T16:05:56;10.80;99.90
12053;DHT22;6087;48.982;12.064;2022-10-01T16:08:26;10.80;99.90
12053;DHT22;6087;48.982;12.064;2022-10-01T16:11:16;10.90;99.90
12053;DHT22;6087;48.982;12.064;2022-10-01T16:13:44;10.90;99.90
12053;DHT22;6087;48.982;12.064;2022-10-01T16:16:22;10.90;99.90
12053;DHT22;6087;48.982;12.064;2022-10-01T16:18:52;10.80;99.90